»·PEaware :: N101WS KSBP-KPRB

N101WS :: KSBP-KPRB

FLIGHT INFORMATION

Flight Status: Arrived
Operator: Privately registered:
United States
More flights under this callsign
Pilot: Mark K. (33451)
Aircraft: CESSNA 172 SKYHAWK
(C172)
More flights by this aircraft type
Origin: KSBP San Luis Co Regl
United States
Destination: KPRB Paso Robles Mun
United States
More flights between these airports :: More routes between these airports
Route: CREPE3 PRB
File this flight plan on PilotEdge
Remarks: CREPE 3 DEP PRB TRANS VOR 19 APCH
Altitude:
(Current/Filed)
4,000ft
Speed:
(Current/Filed)
105kts
Departed: 30-Jan-21 10:44 PM
Arrived: 30-Jan-21 11:24 PM
Distance/Time
Traveled:
26nm/0:40
Distance/Time
To Go:
Arrived

Flight Plot

Page will automatically refresh every two minutes.

Flight plan parsing failed; only flown route is shown


Map Options




Map Legend


Flown Route
Filed Route
Departure Airport
Arrival Airport
Navaid (VOR, NDB)
Fix

Horizontal Profiles

Position Reports

Time Latitude Longitude Heading Altitude Ground
Speed
30-Jan-21 22:34 35.235551 -120.635230 216 216ft 0kts
30-Jan-21 22:35 35.235551 -120.635230 216 216ft 0kts
30-Jan-21 22:36 35.235551 -120.635230 216 216ft 0kts
30-Jan-21 22:37 35.235551 -120.635230 216 216ft 0kts
30-Jan-21 22:38 35.235551 -120.635230 216 216ft 0kts
30-Jan-21 22:39 35.235551 -120.635230 216 216ft 0kts
30-Jan-21 22:40 35.235319 -120.635405 207 216ft 0kts
30-Jan-21 22:41 35.233212 -120.632339 208 216ft 8kts
30-Jan-21 22:42 35.233188 -120.632355 209 216ft 0kts
30-Jan-21 22:43 35.236515 -120.639598 305 250ft 89kts
30-Jan-21 22:44 35.252092 -120.666835 305 1124ft 103kts
30-Jan-21 22:45 35.265608 -120.697652 303 1986ft 105kts
30-Jan-21 22:46 35.282881 -120.727609 305 2690ft 109kts
30-Jan-21 22:47 35.300608 -120.757497 305 3390ft 108kts
30-Jan-21 22:48 35.318072 -120.786907 305 4087ft 106kts
30-Jan-21 22:49 35.335275 -120.815887 305 4752ft 107kts
30-Jan-21 22:50 35.353960 -120.847329 305 4999ft 125kts
30-Jan-21 22:51 35.386367 -120.846540 28 4987ft 130kts
30-Jan-21 22:52 35.417511 -120.823510 31 4987ft 131kts
30-Jan-21 22:53 35.448438 -120.799786 31 4987ft 131kts
30-Jan-21 22:54 35.479251 -120.776109 31 4986ft 131kts
30-Jan-21 22:55 35.510097 -120.752385 31 4986ft 131kts
30-Jan-21 22:56 35.540979 -120.728612 31 4986ft 131kts
30-Jan-21 22:57 35.571828 -120.704843 31 4986ft 131kts
30-Jan-21 22:58 35.593728 -120.672176 75 4977ft 131kts
30-Jan-21 22:59 35.603384 -120.628964 73 4977ft 131kts
30-Jan-21 23:00 35.613397 -120.585806 73 4977ft 131kts
30-Jan-21 23:01 35.623390 -120.542706 73 4977ft 131kts
30-Jan-21 23:02 35.633364 -120.499609 73 4977ft 131kts
30-Jan-21 23:03 35.643322 -120.456506 73 4977ft 131kts
30-Jan-21 23:04 35.653259 -120.413415 73 4977ft 131kts
30-Jan-21 23:05 35.669425 -120.375475 23 4971ft 131kts
30-Jan-21 23:06 35.705411 -120.373922 351 4916ft 129kts
30-Jan-21 23:07 35.736652 -120.383024 341 4502ft 105kts
30-Jan-21 23:08 35.763665 -120.396438 333 4401ft 106kts
30-Jan-21 23:09 35.789573 -120.414880 325 4402ft 107kts
30-Jan-21 23:10 35.812876 -120.437516 317 4401ft 106kts
30-Jan-21 23:11 35.833299 -120.463969 309 4401ft 106kts
30-Jan-21 23:12 35.850464 -120.493730 301 4401ft 106kts
30-Jan-21 23:13 35.863988 -120.526091 292 4401ft 106kts
30-Jan-21 23:14 35.873681 -120.560585 284 4402ft 106kts
30-Jan-21 23:15 35.875173 -120.595603 223 4395ft 106kts
30-Jan-21 23:16 35.844424 -120.598195 184 4098ft 120kts
30-Jan-21 23:17 35.812427 -120.602982 187 3788ft 98kts
30-Jan-21 23:18 35.786473 -120.607459 187 3303ft 95kts
30-Jan-21 23:19 35.759930 -120.612023 187 2625ft 95kts
30-Jan-21 23:20 35.734395 -120.616443 187 1923ft 91kts
30-Jan-21 23:21 35.710654 -120.620501 187 1447ft 78kts
30-Jan-21 23:22 35.688591 -120.624326 187 1075ft 86kts
30-Jan-21 23:23 35.671956 -120.631647 208 810ft 33kts
30-Jan-21 23:24 35.670142 -120.637055 309 807ft 10kts
30-Jan-21 23:25 35.670404 -120.637440 352 806ft 0kts
30-Jan-21 23:26 35.670404 -120.637440 352 806ft 0kts
30-Jan-21 23:27 35.670404 -120.637440 352 806ft 0kts

Navigation Log

Ident Type
Flight plan parsing failed, navigation log unavailable